Ashiya — JD2302 — position and weather

sailwx.info

Track history (hours):
 
Tides and Currents Weather Stations Pressure Air Temp Water Temp Dewpoint Dewpoint Depression Visibility Wind Speed Wind Dir Waves Ship Positions

Ashiya

Last reported at 2018-May-21 11:01 UTC. Time now 2018-May-21 14:35 UTC.
Position N 34°24' E 134°14'.

Length 96 m; draft 4.5 m.

Type: Cargo ship. MMSI: 431501871.

Date/timePositionNaut miles runAvg speedWind from/ knotsBaromVisibWave heightAir tempDewpointWater temp
2018-May-21 11:01N 34°24' E 134°14'112.0
2018-May-21 10:55N 34°25' E 134°15'511.5
2018-May-21 10:30N 34°25' E 134°21'611.8
2018-May-21 10:00N 34°27' E 134°27'611.8
2018-May-21 09:30N 34°30' E 134°34'611.3
2018-May-21 09:00N 34°32' E 134°40'611.2
2018-May-21 08:30N 34°34' E 134°47'510.6
2018-May-21 08:00N 34°36' E 134°53'510.6
2018-May-21 07:30N 34°37' E 134°59'510.5
2018-May-21 07:00N 34°36' E 135°05'611.8
2018-May-21 06:30N 34°37' E 135°12'4 7.1
2018-May-21 06:01N 34°40' E 135°15'0 0.9
2018-May-21 05:30N 34°40' E 135°14'0 0.0
2018-May-21 05:00N 34°40' E 135°14'0 0.0
2018-May-21 04:27N 34°40' E 135°14'0 0.0
2018-May-21 03:57N 34°40' E 135°14'0 0.0
2018-May-21 03:30N 34°40' E 135°14'0 0.0
2018-May-21 03:00N 34°40' E 135°14'0 0.0
2018-May-21 02:27N 34°40' E 135°14'0 0.0
2018-May-21 02:00N 34°40' E 135°14'0 0.7
2018-May-21 01:30N 34°40' E 135°14'0 0.9
2018-May-21 01:00N 34°40' E 135°15'2 3.7
2018-May-21 00:30N 34°41' E 135°17'0 0.0
2018-May-20 23:59N 34°41' E 135°17'0 0.0
2018-May-20 23:30N 34°41' E 135°17'3 6.6
2018-May-20 23:00N 34°41' E 135°13'0 0.3
2018-May-20 22:28N 34°41' E 135°13'0 0.0
2018-May-20 21:52N 34°41' E 135°13'0 0.0
2018-May-20 21:22N 34°41' E 135°13'0 0.0
2018-May-20 20:52N 34°41' E 135°13'0 0.0
2018-May-20 20:22N 34°41' E 135°13'0 0.0
2018-May-20 19:46N 34°41' E 135°13'0 0.0
2018-May-20 19:10N 34°41' E 135°13'0 0.0
2018-May-20 18:58N 34°41' E 135°13'0 0.0
2018-May-20 18:28N 34°41' E 135°13'0 0.0
2018-May-20 17:58N 34°41' E 135°13'0 0.0
2018-May-20 17:28N 34°41' E 135°13'0 0.0
2018-May-20 16:58N 34°41' E 135°13'0 0.0
2018-May-20 16:28N 34°41' E 135°13'0 0.0
2018-May-20 15:58N 34°41' E 135°13'0 0.0
2018-May-20 15:28N 34°41' E 135°13'0 0.0
2018-May-20 14:58N 34°41' E 135°13'0 0.0
2018-May-20 14:28N 34°41' E 135°13'0 0.0
2018-May-20 13:58N 34°41' E 135°13'0 0.0
2018-May-20 13:28N 34°41' E 135°13'0 0.0
2018-May-20 12:58N 34°41' E 135°13'0 0.0
2018-May-20 12:28N 34°41' E 135°13'0 0.0
2018-May-20 11:58N 34°41' E 135°13'0 0.0
2018-May-20 11:22N 34°41' E 135°13'0 0.0
2018-May-20 10:58N 34°41' E 135°13'0 0.0
2018-May-20 10:28N 34°41' E 135°13'0 0.0
2018-May-20 09:58N 34°41' E 135°13'0 0.0
2018-May-20 09:28N 34°41' E 135°13'0 0.0
2018-May-20 08:58N 34°41' E 135°13'0 0.0
2018-May-20 08:28N 34°41' E 135°13'0 0.0
2018-May-20 07:58N 34°41' E 135°13'0 0.0
2018-May-20 07:28N 34°41' E 135°13'0 0.0
2018-May-20 06:58N 34°41' E 135°13'0 0.0
2018-May-20 06:28N 34°41' E 135°13'0 0.0
2018-May-20 05:58N 34°41' E 135°13'0 0.0
2018-May-20 05:22N 34°41' E 135°13'0 0.0
2018-May-20 04:52N 34°41' E 135°13'0 0.0
2018-May-20 04:28N 34°41' E 135°13'0 0.0
2018-May-20 03:58N 34°41' E 135°13'0 0.0
2018-May-20 03:28N 34°41' E 135°13'0 0.0
2018-May-20 02:52N 34°41' E 135°13'0 0.0
2018-May-20 02:22N 34°41' E 135°13'0 0.0
2018-May-20 01:58N 34°41' E 135°13'0 0.0
2018-May-20 01:22N 34°41' E 135°13'0 0.0
2018-May-20 00:52N 34°41' E 135°13'0 0.0
2018-May-20 00:28N 34°41' E 135°13'0 1.1
2018-May-20 00:00N 34°41' E 135°13'4 8.1
2018-May-19 23:30N 34°37' E 135°14'612.2
2018-May-19 23:00N 34°35' E 135°07'713.5
2018-May-19 22:30N 34°37' E 134°59'713.8
2018-May-19 22:00N 34°34' E 134°52'612.4
2018-May-19 21:30N 34°32' E 134°45'612.3
2018-May-19 21:00N 34°29' E 134°38'612.4
2018-May-19 20:30N 34°27' E 134°31'612.5
2018-May-19 19:59N 34°25' E 134°24'712.6
2018-May-19 19:28N 34°24' E 134°16'1 0.0
2018-May-18 19:38N 34°24' E 134°15'110.1
2018-May-18 19:30N 34°24' E 134°17'510.3
2018-May-18 19:01N 34°25' E 134°23'611.4
2018-May-18 18:30N 34°27' E 134°29'611.2
2018-May-18 18:00N 34°29' E 134°36'611.9
2018-May-18 17:30N 34°32' E 134°42'612.6
2018-May-18 17:01N 34°34' E 134°49'712.9
2018-May-18 16:30N 34°37' E 134°56'611.6
2018-May-18 16:01N 34°36' E 135°03'611.0
2018-May-18 15:30N 34°36' E 135°10'510.8
2018-May-18 15:00N 34°38' E 135°16'2 4.4
2018-May-18 14:31N 34°40' E 135°14'0 0.0
2018-May-18 14:01N 34°40' E 135°14'0 0.9
2018-May-18 13:29N 34°40' E 135°15'0 0.8
2018-May-18 13:00N 34°39' E 135°15'0 0.0
2018-May-18 12:30N 34°39' E 135°15'0 0.0
2018-May-18 12:00N 34°39' E 135°15'0 0.0
2018-May-18 11:30N 34°39' E 135°15'0 0.0
2018-May-18 11:00N 34°39' E 135°15'0 0.0
2018-May-18 10:29N 34°39' E 135°15'0 0.0
2018-May-18 10:00N 34°39' E 135°15'0 0.0
2018-May-18 09:29N 34°39' E 135°15'0 0.0
2018-May-18 09:00N 34°39' E 135°15'0 0.0
2018-May-18 08:30N 34°39' E 135°15'0 0.0
2018-May-18 08:00N 34°39' E 135°15'0 0.4
2018-May-18 07:29N 34°39' E 135°15'2 3.2
2018-May-18 07:00N 34°41' E 135°16'1 1.2
2018-May-18 06:26N 34°41' E 135°17'0 0.1
2018-May-18 05:57N 34°41' E 135°17'1 1.2
2018-May-18 05:30N 34°41' E 135°17'2 3.9
2018-May-18 04:55N 34°39' E 135°19'0 0.0
2018-May-18 04:25N 34°39' E 135°19'0 0.0
2018-May-18 03:55N 34°39' E 135°19'0 0.1
2018-May-18 03:25N 34°39' E 135°19'0 0.0
2018-May-18 02:58N 34°39' E 135°19'0 0.0
2018-May-18 02:13N 34°39' E 135°19'0 0.0
2018-May-18 01:55N 34°39' E 135°19'0 0.1
2018-May-18 01:25N 34°39' E 135°19'0 0.1
2018-May-18 01:01N 34°39' E 135°19'4 7.3
2018-May-18 00:30N 34°39' E 135°15'0 0.0
2018-May-18 00:00N 34°39' E 135°15'0 0.1
2018-May-17 23:25N 34°39' E 135°15'2 4.4
2018-May-17 23:00N 34°37' E 135°15'1 1.2
2018-May-17 22:25N 34°37' E 135°15'0 0.0
2018-May-17 21:55N 34°37' E 135°15'0 0.0
2018-May-17 21:25N 34°37' E 135°15'0 0.0
2018-May-17 20:49N 34°37' E 135°15'0 0.0
2018-May-17 20:25N 34°37' E 135°15'0 0.4
2018-May-17 20:00N 34°37' E 135°15'611.8
2018-May-17 19:30N 34°35' E 135°08'713.7
2018-May-17 19:00N 34°37' E 135°00'714.5
2018-May-17 18:30N 34°34' E 134°52'612.6
2018-May-17 18:00N 34°32' E 134°45'612.7
2018-May-17 17:30N 34°29' E 134°38'713.1
2018-May-17 17:00N 34°27' E 134°30'712.8
2018-May-17 16:28N 34°24' E 134°23'612.6
2018-May-17 15:58N 34°24' E 134°15'1 0.0
2018-May-16 11:08N 34°24' E 134°14'313.8
2018-May-16 10:55N 34°25' E 134°18'612.9
2018-May-16 10:29N 34°26' E 134°24'612.6
2018-May-16 10:00N 34°28' E 134°31'612.5
2018-May-16 09:30N 34°31' E 134°38'713.1
2018-May-16 09:00N 34°33' E 134°45'713.1
2018-May-16 08:30N 34°35' E 134°53'712.0
2018-May-16 07:55N 34°37' E 135°01'410.5
2018-May-16 07:30N 34°36' E 135°06'611.9
2018-May-16 07:00N 34°37' E 135°13'2 4.7
2018-May-16 06:29N 34°40' E 135°14'0 0.0
2018-May-16 05:55N 34°40' E 135°14'0 0.0
2018-May-16 05:25N 34°40' E 135°14'0 0.0
2018-May-16 04:55N 34°40' E 135°14'0 0.2
2018-May-16 04:30N 34°40' E 135°14'3 6.2
2018-May-16 03:59N 34°39' E 135°18'1 1.6
2018-May-16 03:30N 34°39' E 135°19'0 0.0
2018-May-16 03:00N 34°39' E 135°19'0 0.1
2018-May-16 02:30N 34°39' E 135°19'0 0.0
2018-May-16 02:00N 34°39' E 135°19'0 0.0
2018-May-16 01:24N 34°39' E 135°19'0 0.0
2018-May-16 01:00N 34°39' E 135°19'3 5.8
2018-May-16 00:30N 34°41' E 135°17'0 0.0
2018-May-15 23:58N 34°41' E 135°17'0 0.0
2018-May-15 23:30N 34°41' E 135°17'2 3.6
2018-May-15 23:00N 34°40' E 135°18'1 2.2
2018-May-15 22:30N 34°39' E 135°19'0 0.2
2018-May-15 22:00N 34°39' E 135°19'2 4.5
2018-May-15 21:30N 34°37' E 135°18'612.0
2018-May-15 21:00N 34°35' E 135°11'612.9
2018-May-15 20:30N 34°36' E 135°03'611.7
2018-May-15 20:00N 34°36' E 134°56'713.0
2018-May-15 19:29N 34°33' E 134°49'612.6
2018-May-15 19:00N 34°31' E 134°42'612.5
2018-May-15 18:30N 34°28' E 134°35'612.7
2018-May-15 18:00N 34°26' E 134°28'612.5
2018-May-15 17:30N 34°24' E 134°21'713.2
2018-May-15 16:57N 34°24' E 134°12'3412.9
2018-May-15 14:20N 34°16' E 133°32'712.5
2018-May-15 13:47N 34°14' E 133°24'2311.6
2018-May-15 11:47N 34°10' E 132°57'614.2
2018-May-15 11:22N 34°07' E 132°51'614.1
2018-May-15 10:58N 34°02' E 132°47'714.5
2018-May-15 10:30N 33°57' E 132°42'814.1
2018-May-15 09:55N 33°53' E 132°33'713.4
2018-May-15 09:26N 33°51' E 132°26'613.4
2018-May-15 08:57N 33°50' E 132°18'813.0
2018-May-15 08:20N 33°48' E 132°09'412.2
2018-May-15 07:59N 33°46' E 132°04'510.7
2018-May-15 07:29N 33°48' E 131°58'611.6
2018-May-15 07:00N 33°51' E 131°52'611.9
2018-May-15 06:30N 33°53' E 131°46'611.9
2018-May-15 06:01N 33°55' E 131°39'612.1
2018-May-15 05:30N 33°59' E 131°33'2 3.7
2018-May-15 04:59N 34°01' E 131°34'0 0.0
2018-May-15 03:59N 34°01' E 131°34'0 0.0
2018-May-15 03:23N 34°01' E 131°34'0 0.0
2018-May-15 02:53N 34°01' E 131°34'0 0.0
2018-May-15 02:29N 34°01' E 131°34'0 0.0
2018-May-15 01:47N 34°01' E 131°34'0 0.0
2018-May-15 01:26N 34°01' E 131°34'1 2.4
2018-May-15 01:00N 33°60' E 131°33'1 2.1
2018-May-15 00:28N 33°59' E 131°32'0 0.0
2018-May-14 23:40N 33°59' E 131°32'0 0.0
2018-May-14 23:28N 33°59' E 131°32'2 3.6
2018-May-14 22:59N 33°58' E 131°34'612.7
2018-May-14 22:30N 33°54' E 131°40'612.8
2018-May-14 22:00N 33°51' E 131°47'612.7
2018-May-14 21:30N 33°47' E 131°53'612.7
2018-May-14 21:00N 33°44' E 131°60'612.2
2018-May-14 20:30N 33°42' E 132°07'711.9
2018-May-14 19:53N 33°44' E 132°15'512.2
2018-May-14 19:30N 33°45' E 132°21'712.4
2018-May-14 18:57N 33°48' E 132°28'612.6
2018-May-14 18:30N 33°51' E 132°34'612.7
2018-May-14 18:00N 33°56' E 132°39'714.1
2018-May-14 17:30N 34°01' E 132°45'813.8
2018-May-14 16:56N 34°07' E 132°51'612.7
2018-May-14 16:25N 34°09' E 132°59'5511.8
2018-May-14 11:46N 34°26' E 134°02'513.1
2018-May-14 11:22N 34°26' E 134°08'513.8
2018-May-14 10:59N 34°24' E 134°14'613.3
2018-May-14 10:30N 34°25' E 134°22'612.6
2018-May-14 10:00N 34°27' E 134°29'612.8
2018-May-14 09:31N 34°30' E 134°36'713.2
2018-May-14 09:00N 34°32' E 134°43'714.1
2018-May-14 08:30N 34°35' E 134°51'713.6
2018-May-14 08:00N 34°37' E 134°59'611.1
2018-May-14 07:30N 34°36' E 135°06'612.3
2018-May-14 07:00N 34°37' E 135°13'3 6.1
2018-May-14 06:30N 34°40' E 135°14'0 0.2
2018-May-14 06:00N 34°40' E 135°14'0 0.0
2018-May-14 05:28N 34°40' E 135°14'0 0.0
2018-May-14 04:58N 34°40' E 135°14'0 0.0
2018-May-14 04:28N 34°40' E 135°14'0 0.1
2018-May-14 03:58N 34°40' E 135°14'1 2.7
2018-May-14 03:30N 34°39' E 135°15'2 4.9
2018-May-14 03:01N 34°41' E 135°18'1 1.8
2018-May-14 02:30N 34°41' E 135°17'0 0.0
2018-May-14 02:00N 34°41' E 135°17'0 0.0
2018-May-14 01:30N 34°41' E 135°17'3 6.3
2018-May-14 01:00N 34°42' E 135°13'0 0.3
2018-May-14 00:29N 34°41' E 135°13'0 0.0
2018-May-13 23:59N 34°41' E 135°13'0 0.0
2018-May-13 23:29N 34°41' E 135°13'0 0.0
2018-May-13 22:59N 34°41' E 135°13'0 0.0
2018-May-13 22:29N 34°41' E 135°13'0 0.0
2018-May-13 21:59N 34°41' E 135°13'0 0.0
2018-May-13 21:29N 34°41' E 135°13'0 0.0
2018-May-13 20:59N 34°41' E 135°13'0 0.0
2018-May-13 20:29N 34°41' E 135°13'0 0.0
2018-May-13 19:59N 34°41' E 135°13'0 0.0
2018-May-13 19:29N 34°41' E 135°13'0 0.0
2018-May-13 18:59N 34°41' E 135°13'0 0.0
2018-May-13 18:29N 34°41' E 135°13'0 0.0
2018-May-13 17:59N 34°41' E 135°13'0 0.0
2018-May-13 17:29N 34°41' E 135°13'0 0.0
2018-May-13 16:59N 34°41' E 135°13'0 0.0
2018-May-13 16:29N 34°41' E 135°13'0 0.0
2018-May-13 15:59N 34°41' E 135°13'0 0.0
2018-May-13 15:29N 34°41' E 135°13'0 0.0
2018-May-13 14:59N 34°41' E 135°13'0 0.0
2018-May-13 14:29N 34°41' E 135°13'0 0.0
2018-May-13 13:59N 34°41' E 135°13'0 0.0
2018-May-13 13:29N 34°41' E 135°13'0 0.0
2018-May-13 12:59N 34°41' E 135°13'0 0.0
2018-May-13 12:29N 34°41' E 135°13'0 0.0
2018-May-13 11:59N 34°41' E 135°13'0 0.0
2018-May-13 11:29N 34°41' E 135°13'0 0.0
2018-May-13 10:59N 34°41' E 135°13'0 0.0
2018-May-13 10:29N 34°41' E 135°13'0 0.0
2018-May-13 09:59N 34°41' E 135°13'0 0.0
2018-May-13 09:29N 34°41' E 135°13'0 0.0
2018-May-13 08:59N 34°41' E 135°13'0 0.0
2018-May-13 08:29N 34°41' E 135°13'0 0.0
2018-May-13 07:59N 34°41' E 135°13'0 0.0
2018-May-13 07:29N 34°41' E 135°13'0 0.0
2018-May-13 06:59N 34°41' E 135°13'0 0.0
2018-May-13 06:29N 34°41' E 135°13'0 0.0
2018-May-13 05:59N 34°41' E 135°13'0 0.0
2018-May-13 05:29N 34°41' E 135°13'0 0.0
2018-May-13 04:59N 34°41' E 135°13'0 0.0
2018-May-13 04:29N 34°41' E 135°13'0 0.0
2018-May-13 03:59N 34°41' E 135°13'0 0.0
2018-May-13 03:29N 34°41' E 135°13'0 0.0
2018-May-13 02:59N 34°41' E 135°13'0 0.0
2018-May-13 02:29N 34°41' E 135°13'0 0.0
2018-May-13 01:59N 34°41' E 135°13'0 0.0
2018-May-13 01:29N 34°41' E 135°13'0 0.0
2018-May-13 00:59N 34°41' E 135°13'0 0.0
2018-May-13 00:29N 34°41' E 135°13'0 0.0
2018-May-12 23:59N 34°41' E 135°13'0 0.0
2018-May-12 23:29N 34°41' E 135°13'1 1.6
2018-May-12 23:00N 34°41' E 135°14'4 8.2
2018-May-12 22:30N 34°37' E 135°14'0 0.2
2018-May-12 21:58N 34°37' E 135°14'0 0.0
2018-May-12 21:28N 34°37' E 135°14'0 0.0
2018-May-12 20:58N 34°37' E 135°14'0 0.0
2018-May-12 20:28N 34°37' E 135°14'0 0.1
2018-May-12 19:58N 34°37' E 135°14'0 0.1
2018-May-12 19:28N 34°37' E 135°14'0 0.0
2018-May-12 18:58N 34°37' E 135°14'2 3.7
2018-May-12 18:30N 34°36' E 135°12'613.1
2018-May-12 18:01N 34°35' E 135°05'612.0
2018-May-12 17:31N 34°37' E 134°58'713.6
2018-May-12 17:01N 34°34' E 134°50'612.8
2018-May-12 16:30N 34°31' E 134°43'612.8
2018-May-12 16:00N 34°29' E 134°36'612.6
2018-May-12 15:30N 34°26' E 134°29'712.6
2018-May-12 14:59N 34°24' E 134°21'612.9
2018-May-12 14:30N 34°24' E 134°14'913.6
2018-May-12 13:53N 34°26' E 134°04'7112.3
2018-May-12 08:04N 34°06' E 132°42'113.3
2018-May-12 08:00N 34°05' E 132°41'713.1
2018-May-12 07:30N 34°03' E 132°33'610.7
2018-May-12 06:59N 34°05' E 132°27'611.5
2018-May-12 06:27N 34°09' E 132°22'511.0
2018-May-12 06:00N 34°14' E 132°22'5 9.2
2018-May-12 05:30N 34°18' E 132°26'5 9.4
2018-May-12 05:00N 34°21' E 132°30'1 1.2
2018-May-12 04:30N 34°21' E 132°31'0 0.0
2018-May-12 04:00N 34°21' E 132°31'0 0.0
2018-May-12 03:30N 34°21' E 132°31'0 0.0
2018-May-12 02:59N 34°21' E 132°31'0 0.0
2018-May-12 02:26N 34°21' E 132°31'0 0.0
2018-May-12 02:00N 34°21' E 132°31'0 0.0
2018-May-12 01:26N 34°21' E 132°31'0 0.0
2018-May-12 00:59N 34°21' E 132°31'0 0.0
2018-May-12 00:29N 34°21' E 132°31'0 0.0
2018-May-12 00:00N 34°21' E 132°31'4 8.0
2018-May-11 23:30N 34°18' E 132°28'611.3
2018-May-11 23:00N 34°15' E 132°22'612.1
2018-May-11 22:30N 34°09' E 132°23'612.5
2018-May-11 22:00N 34°04' E 132°28'610.4
2018-May-11 21:27N 34°03' E 132°35'612.5
2018-May-11 21:00N 34°06' E 132°41'6511.5
2018-May-11 15:21N 34°25' E 133°56'1011.3
2018-May-11 14:27N 34°26' E 134°08'511.1
2018-May-11 14:00N 34°24' E 134°14'611.9
2018-May-11 13:30N 34°25' E 134°21'612.2
2018-May-11 13:00N 34°27' E 134°28'612.1
2018-May-11 12:30N 34°29' E 134°34'612.5
2018-May-11 12:00N 34°32' E 134°41'713.5
2018-May-11 11:30N 34°34' E 134°49'  
Track history (hours):
 
Tides and Currents Weather Stations Pressure Air Temp Water Temp Dewpoint Dewpoint Depression Visibility Wind Speed Wind Dir Waves Ship Positions

Ashiya

Last reported at 2018-May-21 11:01 UTC. Time now 2018-May-21 14:35 UTC.
Position N 34°24' E 134°14'.

Length 96 m; draft 4.5 m.

Type: Cargo ship. MMSI: 431501871.

Date/timePositionNaut miles runAvg speedWind from/ knotsBaromVisibWave heightAir tempDewpointWater temp
2018-May-21 11:01N 34°24' E 134°14'112.0
2018-May-21 10:55N 34°25' E 134°15'511.5
2018-May-21 10:30N 34°25' E 134°21'611.8
2018-May-21 10:00N 34°27' E 134°27'611.8
2018-May-21 09:30N 34°30' E 134°34'611.3
2018-May-21 09:00N 34°32' E 134°40'611.2
2018-May-21 08:30N 34°34' E 134°47'510.6
2018-May-21 08:00N 34°36' E 134°53'510.6
2018-May-21 07:30N 34°37' E 134°59'510.5
2018-May-21 07:00N 34°36' E 135°05'611.8
2018-May-21 06:30N 34°37' E 135°12'4 7.1
2018-May-21 06:01N 34°40' E 135°15'0 0.9
2018-May-21 05:30N 34°40' E 135°14'0 0.0
2018-May-21 05:00N 34°40' E 135°14'0 0.0
2018-May-21 04:27N 34°40' E 135°14'0 0.0
2018-May-21 03:57N 34°40' E 135°14'0 0.0
2018-May-21 03:30N 34°40' E 135°14'0 0.0
2018-May-21 03:00N 34°40' E 135°14'0 0.0
2018-May-21 02:27N 34°40' E 135°14'0 0.0
2018-May-21 02:00N 34°40' E 135°14'0 0.7
2018-May-21 01:30N 34°40' E 135°14'0 0.9
2018-May-21 01:00N 34°40' E 135°15'2 3.7
2018-May-21 00:30N 34°41' E 135°17'0 0.0
2018-May-20 23:59N 34°41' E 135°17'0 0.0
2018-May-20 23:30N 34°41' E 135°17'3 6.6
2018-May-20 23:00N 34°41' E 135°13'0 0.3
2018-May-20 22:28N 34°41' E 135°13'0 0.0
2018-May-20 21:52N 34°41' E 135°13'0 0.0
2018-May-20 21:22N 34°41' E 135°13'0 0.0
2018-May-20 20:52N 34°41' E 135°13'0 0.0
2018-May-20 20:22N 34°41' E 135°13'0 0.0
2018-May-20 19:46N 34°41' E 135°13'0 0.0
2018-May-20 19:10N 34°41' E 135°13'0 0.0
2018-May-20 18:58N 34°41' E 135°13'0 0.0
2018-May-20 18:28N 34°41' E 135°13'0 0.0
2018-May-20 17:58N 34°41' E 135°13'0 0.0
2018-May-20 17:28N 34°41' E 135°13'0 0.0
2018-May-20 16:58N 34°41' E 135°13'0 0.0
2018-May-20 16:28N 34°41' E 135°13'0 0.0
2018-May-20 15:58N 34°41' E 135°13'0 0.0
2018-May-20 15:28N 34°41' E 135°13'0 0.0
2018-May-20 14:58N 34°41' E 135°13'0 0.0
2018-May-20 14:28N 34°41' E 135°13'0 0.0
2018-May-20 13:58N 34°41' E 135°13'0 0.0
2018-May-20 13:28N 34°41' E 135°13'0 0.0
2018-May-20 12:58N 34°41' E 135°13'0 0.0
2018-May-20 12:28N 34°41' E 135°13'0 0.0
2018-May-20 11:58N 34°41' E 135°13'0 0.0
2018-May-20 11:22N 34°41' E 135°13'0 0.0
2018-May-20 10:58N 34°41' E 135°13'0 0.0
2018-May-20 10:28N 34°41' E 135°13'0 0.0
2018-May-20 09:58N 34°41' E 135°13'0 0.0
2018-May-20 09:28N 34°41' E 135°13'0 0.0
2018-May-20 08:58N 34°41' E 135°13'0 0.0
2018-May-20 08:28N 34°41' E 135°13'0 0.0
2018-May-20 07:58N 34°41' E 135°13'0 0.0
2018-May-20 07:28N 34°41' E 135°13'0 0.0
2018-May-20 06:58N 34°41' E 135°13'0 0.0
2018-May-20 06:28N 34°41' E 135°13'0 0.0
2018-May-20 05:58N 34°41' E 135°13'0 0.0
2018-May-20 05:22N 34°41' E 135°13'0 0.0
2018-May-20 04:52N 34°41' E 135°13'0 0.0
2018-May-20 04:28N 34°41' E 135°13'0 0.0
2018-May-20 03:58N 34°41' E 135°13'0 0.0
2018-May-20 03:28N 34°41' E 135°13'0 0.0
2018-May-20 02:52N 34°41' E 135°13'0 0.0
2018-May-20 02:22N 34°41' E 135°13'0 0.0
2018-May-20 01:58N 34°41' E 135°13'0 0.0
2018-May-20 01:22N 34°41' E 135°13'0 0.0
2018-May-20 00:52N 34°41' E 135°13'0 0.0
2018-May-20 00:28N 34°41' E 135°13'0 1.1
2018-May-20 00:00N 34°41' E 135°13'4 8.1
2018-May-19 23:30N 34°37' E 135°14'612.2
2018-May-19 23:00N 34°35' E 135°07'713.5
2018-May-19 22:30N 34°37' E 134°59'713.8
2018-May-19 22:00N 34°34' E 134°52'612.4
2018-May-19 21:30N 34°32' E 134°45'612.3
2018-May-19 21:00N 34°29' E 134°38'612.4
2018-May-19 20:30N 34°27' E 134°31'612.5
2018-May-19 19:59N 34°25' E 134°24'712.6
2018-May-19 19:28N 34°24' E 134°16'1 0.0
2018-May-18 19:38N 34°24' E 134°15'110.1
2018-May-18 19:30N 34°24' E 134°17'510.3
2018-May-18 19:01N 34°25' E 134°23'611.4
2018-May-18 18:30N 34°27' E 134°29'611.2
2018-May-18 18:00N 34°29' E 134°36'611.9
2018-May-18 17:30N 34°32' E 134°42'612.6
2018-May-18 17:01N 34°34' E 134°49'712.9
2018-May-18 16:30N 34°37' E 134°56'611.6
2018-May-18 16:01N 34°36' E 135°03'611.0
2018-May-18 15:30N 34°36' E 135°10'510.8
2018-May-18 15:00N 34°38' E 135°16'2 4.4
2018-May-18 14:31N 34°40' E 135°14'0 0.0
2018-May-18 14:01N 34°40' E 135°14'0 0.9
2018-May-18 13:29N 34°40' E 135°15'0 0.8
2018-May-18 13:00N 34°39' E 135°15'0 0.0
2018-May-18 12:30N 34°39' E 135°15'0 0.0
2018-May-18 12:00N 34°39' E 135°15'0 0.0
2018-May-18 11:30N 34°39' E 135°15'0 0.0
2018-May-18 11:00N 34°39' E 135°15'0 0.0
2018-May-18 10:29N 34°39' E 135°15'0 0.0
2018-May-18 10:00N 34°39' E 135°15'0 0.0
2018-May-18 09:29N 34°39' E 135°15'0 0.0
2018-May-18 09:00N 34°39' E 135°15'0 0.0
2018-May-18 08:30N 34°39' E 135°15'0 0.0
2018-May-18 08:00N 34°39' E 135°15'0 0.4
2018-May-18 07:29N 34°39' E 135°15'2 3.2
2018-May-18 07:00N 34°41' E 135°16'1 1.2
2018-May-18 06:26N 34°41' E 135°17'0 0.1
2018-May-18 05:57N 34°41' E 135°17'1 1.2
2018-May-18 05:30N 34°41' E 135°17'2 3.9
2018-May-18 04:55N 34°39' E 135°19'0 0.0
2018-May-18 04:25N 34°39' E 135°19'0 0.0
2018-May-18 03:55N 34°39' E 135°19'0 0.1
2018-May-18 03:25N 34°39' E 135°19'0 0.0
2018-May-18 02:58N 34°39' E 135°19'0 0.0
2018-May-18 02:13N 34°39' E 135°19'0 0.0
2018-May-18 01:55N 34°39' E 135°19'0 0.1
2018-May-18 01:25N 34°39' E 135°19'0 0.1
2018-May-18 01:01N 34°39' E 135°19'4 7.3
2018-May-18 00:30N 34°39' E 135°15'0 0.0
2018-May-18 00:00N 34°39' E 135°15'0 0.1
2018-May-17 23:25N 34°39' E 135°15'2 4.4
2018-May-17 23:00N 34°37' E 135°15'1 1.2
2018-May-17 22:25N 34°37' E 135°15'0 0.0
2018-May-17 21:55N 34°37' E 135°15'0 0.0
2018-May-17 21:25N 34°37' E 135°15'0 0.0
2018-May-17 20:49N 34°37' E 135°15'0 0.0
2018-May-17 20:25N 34°37' E 135°15'0 0.4
2018-May-17 20:00N 34°37' E 135°15'611.8
2018-May-17 19:30N 34°35' E 135°08'713.7
2018-May-17 19:00N 34°37' E 135°00'714.5
2018-May-17 18:30N 34°34' E 134°52'612.6
2018-May-17 18:00N 34°32' E 134°45'612.7
2018-May-17 17:30N 34°29' E 134°38'713.1
2018-May-17 17:00N 34°27' E 134°30'712.8
2018-May-17 16:28N 34°24' E 134°23'612.6
2018-May-17 15:58N 34°24' E 134°15'1 0.0
2018-May-16 11:08N 34°24' E 134°14'313.8
2018-May-16 10:55N 34°25' E 134°18'612.9
2018-May-16 10:29N 34°26' E 134°24'612.6
2018-May-16 10:00N 34°28' E 134°31'612.5
2018-May-16 09:30N 34°31' E 134°38'713.1
2018-May-16 09:00N 34°33' E 134°45'713.1
2018-May-16 08:30N 34°35' E 134°53'712.0
2018-May-16 07:55N 34°37' E 135°01'410.5
2018-May-16 07:30N 34°36' E 135°06'611.9
2018-May-16 07:00N 34°37' E 135°13'2 4.7
2018-May-16 06:29N 34°40' E 135°14'0 0.0
2018-May-16 05:55N 34°40' E 135°14'0 0.0
2018-May-16 05:25N 34°40' E 135°14'0 0.0
2018-May-16 04:55N 34°40' E 135°14'0 0.2
2018-May-16 04:30N 34°40' E 135°14'3 6.2
2018-May-16 03:59N 34°39' E 135°18'1 1.6
2018-May-16 03:30N 34°39' E 135°19'0 0.0
2018-May-16 03:00N 34°39' E 135°19'0 0.1
2018-May-16 02:30N 34°39' E 135°19'0 0.0
2018-May-16 02:00N 34°39' E 135°19'0 0.0
2018-May-16 01:24N 34°39' E 135°19'0 0.0
2018-May-16 01:00N 34°39' E 135°19'3 5.8
2018-May-16 00:30N 34°41' E 135°17'0 0.0
2018-May-15 23:58N 34°41' E 135°17'0 0.0
2018-May-15 23:30N 34°41' E 135°17'2 3.6
2018-May-15 23:00N 34°40' E 135°18'1 2.2
2018-May-15 22:30N 34°39' E 135°19'0 0.2
2018-May-15 22:00N 34°39' E 135°19'2 4.5
2018-May-15 21:30N 34°37' E 135°18'612.0
2018-May-15 21:00N 34°35' E 135°11'612.9
2018-May-15 20:30N 34°36' E 135°03'611.7
2018-May-15 20:00N 34°36' E 134°56'713.0
2018-May-15 19:29N 34°33' E 134°49'612.6
2018-May-15 19:00N 34°31' E 134°42'612.5
2018-May-15 18:30N 34°28' E 134°35'612.7
2018-May-15 18:00N 34°26' E 134°28'612.5
2018-May-15 17:30N 34°24' E 134°21'713.2
2018-May-15 16:57N 34°24' E 134°12'3412.9
2018-May-15 14:20N 34°16' E 133°32'712.5
2018-May-15 13:47N 34°14' E 133°24'2311.6
2018-May-15 11:47N 34°10' E 132°57'614.2
2018-May-15 11:22N 34°07' E 132°51'614.1
2018-May-15 10:58N 34°02' E 132°47'714.5
2018-May-15 10:30N 33°57' E 132°42'814.1
2018-May-15 09:55N 33°53' E 132°33'713.4
2018-May-15 09:26N 33°51' E 132°26'613.4
2018-May-15 08:57N 33°50' E 132°18'813.0
2018-May-15 08:20N 33°48' E 132°09'412.2
2018-May-15 07:59N 33°46' E 132°04'510.7
2018-May-15 07:29N 33°48' E 131°58'611.6
2018-May-15 07:00N 33°51' E 131°52'611.9
2018-May-15 06:30N 33°53' E 131°46'611.9
2018-May-15 06:01N 33°55' E 131°39'612.1
2018-May-15 05:30N 33°59' E 131°33'2 3.7
2018-May-15 04:59N 34°01' E 131°34'0 0.0
2018-May-15 03:59N 34°01' E 131°34'0 0.0
2018-May-15 03:23N 34°01' E 131°34'0 0.0
2018-May-15 02:53N 34°01' E 131°34'0 0.0
2018-May-15 02:29N 34°01' E 131°34'0 0.0
2018-May-15 01:47N 34°01' E 131°34'0 0.0
2018-May-15 01:26N 34°01' E 131°34'1 2.4
2018-May-15 01:00N 33°60' E 131°33'1 2.1
2018-May-15 00:28N 33°59' E 131°32'0 0.0
2018-May-14 23:40N 33°59' E 131°32'0 0.0
2018-May-14 23:28N 33°59' E 131°32'2 3.6
2018-May-14 22:59N 33°58' E 131°34'612.7
2018-May-14 22:30N 33°54' E 131°40'612.8
2018-May-14 22:00N 33°51' E 131°47'612.7
2018-May-14 21:30N 33°47' E 131°53'612.7
2018-May-14 21:00N 33°44' E 131°60'612.2
2018-May-14 20:30N 33°42' E 132°07'711.9
2018-May-14 19:53N 33°44' E 132°15'512.2
2018-May-14 19:30N 33°45' E 132°21'712.4
2018-May-14 18:57N 33°48' E 132°28'612.6
2018-May-14 18:30N 33°51' E 132°34'612.7
2018-May-14 18:00N 33°56' E 132°39'714.1
2018-May-14 17:30N 34°01' E 132°45'813.8
2018-May-14 16:56N 34°07' E 132°51'612.7
2018-May-14 16:25N 34°09' E 132°59'5511.8
2018-May-14 11:46N 34°26' E 134°02'513.1
2018-May-14 11:22N 34°26' E 134°08'513.8
2018-May-14 10:59N 34°24' E 134°14'613.3
2018-May-14 10:30N 34°25' E 134°22'612.6
2018-May-14 10:00N 34°27' E 134°29'612.8
2018-May-14 09:31N 34°30' E 134°36'713.2
2018-May-14 09:00N 34°32' E 134°43'714.1
2018-May-14 08:30N 34°35' E 134°51'713.6
2018-May-14 08:00N 34°37' E 134°59'611.1
2018-May-14 07:30N 34°36' E 135°06'612.3
2018-May-14 07:00N 34°37' E 135°13'3 6.1
2018-May-14 06:30N 34°40' E 135°14'0 0.2
2018-May-14 06:00N 34°40' E 135°14'0 0.0
2018-May-14 05:28N 34°40' E 135°14'0 0.0
2018-May-14 04:58N 34°40' E 135°14'0 0.0
2018-May-14 04:28N 34°40' E 135°14'0 0.1
2018-May-14 03:58N 34°40' E 135°14'1 2.7
2018-May-14 03:30N 34°39' E 135°15'2 4.9
2018-May-14 03:01N 34°41' E 135°18'1 1.8
2018-May-14 02:30N 34°41' E 135°17'0 0.0
2018-May-14 02:00N 34°41' E 135°17'0 0.0
2018-May-14 01:30N 34°41' E 135°17'3 6.3
2018-May-14 01:00N 34°42' E 135°13'0 0.3
2018-May-14 00:29N 34°41' E 135°13'0 0.0
2018-May-13 23:59N 34°41' E 135°13'0 0.0
2018-May-13 23:29N 34°41' E 135°13'0 0.0
2018-May-13 22:59N 34°41' E 135°13'0 0.0
2018-May-13 22:29N 34°41' E 135°13'0 0.0
2018-May-13 21:59N 34°41' E 135°13'0 0.0
2018-May-13 21:29N 34°41' E 135°13'0 0.0
2018-May-13 20:59N 34°41' E 135°13'0 0.0
2018-May-13 20:29N 34°41' E 135°13'0 0.0
2018-May-13 19:59N 34°41' E 135°13'0 0.0
2018-May-13 19:29N 34°41' E 135°13'0 0.0
2018-May-13 18:59N 34°41' E 135°13'0 0.0
2018-May-13 18:29N 34°41' E 135°13'0 0.0
2018-May-13 17:59N 34°41' E 135°13'0 0.0
2018-May-13 17:29N 34°41' E 135°13'0 0.0
2018-May-13 16:59N 34°41' E 135°13'0 0.0
2018-May-13 16:29N 34°41' E 135°13'0 0.0
2018-May-13 15:59N 34°41' E 135°13'0 0.0
2018-May-13 15:29N 34°41' E 135°13'0 0.0
2018-May-13 14:59N 34°41' E 135°13'0 0.0
2018-May-13 14:29N 34°41' E 135°13'0 0.0
2018-May-13 13:59N 34°41' E 135°13'0 0.0
2018-May-13 13:29N 34°41' E 135°13'0 0.0
2018-May-13 12:59N 34°41' E 135°13'0 0.0
2018-May-13 12:29N 34°41' E 135°13'0 0.0
2018-May-13 11:59N 34°41' E 135°13'0 0.0
2018-May-13 11:29N 34°41' E 135°13'0 0.0
2018-May-13 10:59N 34°41' E 135°13'0 0.0
2018-May-13 10:29N 34°41' E 135°13'0 0.0
2018-May-13 09:59N 34°41' E 135°13'0 0.0
2018-May-13 09:29N 34°41' E 135°13'0 0.0
2018-May-13 08:59N 34°41' E 135°13'0 0.0
2018-May-13 08:29N 34°41' E 135°13'0 0.0
2018-May-13 07:59N 34°41' E 135°13'0 0.0
2018-May-13 07:29N 34°41' E 135°13'0 0.0
2018-May-13 06:59N 34°41' E 135°13'0 0.0
2018-May-13 06:29N 34°41' E 135°13'0 0.0
2018-May-13 05:59N 34°41' E 135°13'0 0.0
2018-May-13 05:29N 34°41' E 135°13'0 0.0
2018-May-13 04:59N 34°41' E 135°13'0 0.0
2018-May-13 04:29N 34°41' E 135°13'0 0.0
2018-May-13 03:59N 34°41' E 135°13'0 0.0
2018-May-13 03:29N 34°41' E 135°13'0 0.0
2018-May-13 02:59N 34°41' E 135°13'0 0.0
2018-May-13 02:29N 34°41' E 135°13'0 0.0
2018-May-13 01:59N 34°41' E 135°13'0 0.0
2018-May-13 01:29N 34°41' E 135°13'0 0.0
2018-May-13 00:59N 34°41' E 135°13'0 0.0
2018-May-13 00:29N 34°41' E 135°13'0 0.0
2018-May-12 23:59N 34°41' E 135°13'0 0.0
2018-May-12 23:29N 34°41' E 135°13'1 1.6
2018-May-12 23:00N 34°41' E 135°14'4 8.2
2018-May-12 22:30N 34°37' E 135°14'0 0.2
2018-May-12 21:58N 34°37' E 135°14'0 0.0
2018-May-12 21:28N 34°37' E 135°14'0 0.0
2018-May-12 20:58N 34°37' E 135°14'0 0.0
2018-May-12 20:28N 34°37' E 135°14'0 0.1
2018-May-12 19:58N 34°37' E 135°14'0 0.1
2018-May-12 19:28N 34°37' E 135°14'0 0.0
2018-May-12 18:58N 34°37' E 135°14'2 3.7
2018-May-12 18:30N 34°36' E 135°12'613.1
2018-May-12 18:01N 34°35' E 135°05'612.0
2018-May-12 17:31N 34°37' E 134°58'713.6
2018-May-12 17:01N 34°34' E 134°50'612.8
2018-May-12 16:30N 34°31' E 134°43'612.8
2018-May-12 16:00N 34°29' E 134°36'612.6
2018-May-12 15:30N 34°26' E 134°29'712.6
2018-May-12 14:59N 34°24' E 134°21'612.9
2018-May-12 14:30N 34°24' E 134°14'913.6
2018-May-12 13:53N 34°26' E 134°04'7112.3
2018-May-12 08:04N 34°06' E 132°42'113.3
2018-May-12 08:00N 34°05' E 132°41'713.1
2018-May-12 07:30N 34°03' E 132°33'610.7
2018-May-12 06:59N 34°05' E 132°27'611.5
2018-May-12 06:27N 34°09' E 132°22'511.0
2018-May-12 06:00N 34°14' E 132°22'5 9.2
2018-May-12 05:30N 34°18' E 132°26'5 9.4
2018-May-12 05:00N 34°21' E 132°30'1 1.2
2018-May-12 04:30N 34°21' E 132°31'0 0.0
2018-May-12 04:00N 34°21' E 132°31'0 0.0
2018-May-12 03:30N 34°21' E 132°31'0 0.0
2018-May-12 02:59N 34°21' E 132°31'0 0.0
2018-May-12 02:26N 34°21' E 132°31'0 0.0
2018-May-12 02:00N 34°21' E 132°31'0 0.0
2018-May-12 01:26N 34°21' E 132°31'0 0.0
2018-May-12 00:59N 34°21' E 132°31'0 0.0
2018-May-12 00:29N 34°21' E 132°31'0 0.0
2018-May-12 00:00N 34°21' E 132°31'4 8.0
2018-May-11 23:30N 34°18' E 132°28'611.3
2018-May-11 23:00N 34°15' E 132°22'612.1
2018-May-11 22:30N 34°09' E 132°23'612.5
2018-May-11 22:00N 34°04' E 132°28'610.4
2018-May-11 21:27N 34°03' E 132°35'612.5
2018-May-11 21:00N 34°06' E 132°41'6511.5
2018-May-11 15:21N 34°25' E 133°56'1011.3
2018-May-11 14:27N 34°26' E 134°08'511.1
2018-May-11 14:00N 34°24' E 134°14'611.9
2018-May-11 13:30N 34°25' E 134°21'612.2
2018-May-11 13:00N 34°27' E 134°28'612.1
2018-May-11 12:30N 34°29' E 134°34'612.5
2018-May-11 12:00N 34°32' E 134°41'713.5
2018-May-11 11:30N 34°34' E 134°49'  

Dump ship's entire track history